Maldives Meteorological Service

TAFS

Station TAF
VRMM
VRMM 200500Z 2006/2112 24016KT 9000 SCT017TCU TEMPO 2006/2012 5000 -SHRA FEW018CB BKN110=
VRMH
VRMH 200500Z 2006/2112 27015KT 9000 FEW018TCU SCT120 TEMPO 2006/2012 5000 -TSRA FEW017CB=
VRMK
VRMK 200500Z 2006/2106 24013KT 9999 FEW017TCU TEMPO 2006/2012 24016G33KT 5000 –TSRA FEW017CB=
VRMT
VRMT 200500Z 2006/2106 22012KT 9000 FEW017TCU TEMPO 2007/2013 5000 -TSRA FEW018CB=
VRMG
VRMG 200500Z 2006/2112 21014KT 9000 FEW017TCU SCT120 TEMPO 2007/2013 24016G33KT 4000 TSRA FEW017CB BKN110=